Flight Track Log - Related Links

Times and Time Zones

All times are in EDT time to prevent confusion due to time zone crossing. See the CCA1300 flight status page for this flight to view local times or setup timezone preferences in your user account.


Time Position Orientation Groundspeed Altitude Reporting Facility
EDT Latitude Longitude Course Direction KTS MPH feet Rate Location/Type
Sun 08:04:00 AM 26.9854 117.6875 38° Northeast  Level Estimated
Sun 08:05:00 AM 27.0664 117.7633 40° Northeast  Level Estimated
Sun 08:06:00 AM 27.1474 117.8393 40° Northeast  Level Estimated
Sun 08:07:00 AM 27.2283 117.9153 40° Northeast  Level Estimated
Sun 08:08:00 AM 27.3091 117.9915 40° Northeast  Level Estimated
Sun 08:09:00 AM 27.3900 118.0678 40° Northeast  Level Estimated
Sun 08:10:00 AM 27.4708 118.1442 40° Northeast  Level Estimated
Sun 08:11:00 AM 27.5515 118.2207 40° Northeast  Level Estimated
Sun 08:12:00 AM 27.6322 118.2973 40° Northeast  Level Estimated
Sun 08:13:00 AM 27.7129 118.3740 40° Northeast  Level Estimated
Sun 08:14:00 AM 27.7935 118.4509 40° Northeast  Level Estimated
Sun 08:15:00 AM 27.8741 118.5278 40° Northeast  Level Estimated
Sun 08:16:00 AM 27.9546 118.6049 40° Northeast  Level Estimated
Sun 08:17:00 AM 28.0351 118.6821 40° Northeast  Level Estimated
Sun 08:18:00 AM 28.1155 118.7594 40° Northeast  Level Estimated
Sun 08:19:00 AM 28.1959 118.8368 40° Northeast  Level Estimated
Sun 08:20:00 AM 28.2763 118.9144 40° Northeast  Level Estimated
Sun 08:21:00 AM 28.3566 118.9920 40° Northeast  Level Estimated
Sun 08:22:00 AM 28.4369 119.0698 40° Northeast  Level Estimated
Sun 08:23:00 AM 28.5171 119.1477 40° Northeast  Level Estimated
Sun 08:24:00 AM 28.5973 119.2257 40° Northeast  Level Estimated
Sun 08:25:00 AM 28.6774 119.3038 41° Northeast  Level Estimated
Sun 08:26:00 AM 28.7575 119.3821 41° Northeast  Level Estimated
Sun 08:27:00 AM 28.8376 119.4605 41° Northeast  Level Estimated
Sun 08:28:00 AM 28.9176 119.5389 41° Northeast  Level Estimated
Sun 08:29:00 AM 28.9975 119.6176 41° Northeast  Level Estimated
Sun 08:30:00 AM 29.0774 119.6963 41° Northeast  Level Estimated
Sun 08:31:00 AM 29.1573 119.7751 41° Northeast  Level Estimated
Sun 08:32:00 AM 29.2371 119.8541 41° Northeast  Level Estimated
Sun 08:33:00 AM 29.3169 119.9332 41° Northeast  Level Estimated
Sun 08:34:00 AM 29.3966 120.0124 41° Northeast  Level Estimated
Sun 08:35:00 AM 29.4763 120.0918 41° Northeast  Level Estimated
Sun 08:36:00 AM 29.5560 120.1713 41° Northeast  Level Estimated
Sun 08:37:00 AM 29.6355 120.2509 41° Northeast  Level Estimated
Sun 08:38:00 AM 29.7151 120.3306 41° Northeast  Level Estimated
Sun 08:39:00 AM 29.7946 120.4104 41° Northeast  Level Estimated
Sun 08:40:00 AM 29.8740 120.4904 41° Northeast  Level Estimated
Sun 08:41:00 AM 29.9534 120.5705 41° Northeast  Level Estimated
Sun 08:42:00 AM 30.0327 120.6507 41° Northeast  Level Estimated
Sun 08:43:00 AM 30.1120 120.7311 41° Northeast  Level Estimated
Sun 08:44:00 AM 30.1913 120.8116 41° Northeast  Level Estimated
Sun 08:45:00 AM 30.2705 120.8922 41° Northeast  Level Estimated
Sun 08:46:00 AM 30.3496 120.9730 41° Northeast  Level Estimated
Sun 08:47:00 AM 30.4287 121.0538 41° Northeast  Level Estimated
Sun 08:48:00 AM 30.5078 121.1348 41° Northeast  Level Estimated
Sun 08:49:00 AM 30.5868 121.2160 41° Northeast  Level Estimated
Sun 08:50:00 AM 30.6658 121.2973 42° Northeast  Level Estimated
Sun 08:51:00 AM 30.7446 121.3787 42° Northeast  Level Estimated

Login

Don't have an account? Register now (free) for customized features, flight alerts, and more!